• Join FlightAware (Why Join?)
  • Login
  • US Flag 
07:21AM EDT


 

Airport Tracker/Info


-or-


 

Live Flight TrackerFlight Track Log ✈ CTL17 ✈ 29-Apr-2013 ✈ KPTK - KMBS

Flight Track Log - Related Links

Times and Time Zones

All times are in EDT time to prevent confusion due to time zone crossing. See the CTL17 flight status page for this flight to view local times or setup timezone preferences in your user account.

Time Position Orientation Groundspeed Altitude Reporting Facility
EDT Latitude Longitude Course Direction KTS MPH feet Rate Location/Type
03:54PM 42.6622 -83.4406 281° West 128 147 1,400  Level Cleveland Center
03:55PM 42.6658 -83.4661 281° West 138 159 2,000 960 Climbing Cleveland Center
03:57PM 42.7178 -83.4152 36° Northeast  Level FlightAware Approximate
04:04PM 42.9865 -83.4618 321° Northwest  Level FlightAware Approximate
04:05PM 43.0187 -83.4973 321° Northwest  Level FlightAware Approximate
04:06PM 43.0508 -83.5328 321° Northwest  Level FlightAware Approximate
04:07PM 43.0830 -83.5683 321° Northwest  Level FlightAware Approximate
04:08PM 43.1151 -83.6039 321° Northwest  Level FlightAware Approximate
04:09PM 43.1472 -83.6395 321° Northwest  Level FlightAware Approximate
04:10PM 43.1793 -83.6751 321° Northwest  Level FlightAware Approximate
04:11PM 43.2114 -83.7108 321° Northwest  Level FlightAware Approximate
04:12PM 43.2425 -83.7481 318° Northwest  Level FlightAware Approximate
04:13PM 43.2734 -83.7858 318° Northwest  Level FlightAware Approximate
04:14PM 43.3042 -83.8235 318° Northwest  Level FlightAware Approximate
04:15PM 43.3351 -83.8613 318° Northwest  Level FlightAware Approximate
04:16PM 43.3659 -83.8991 318° Northwest  Level FlightAware Approximate
04:17PM 43.3993 -83.9326 324° Northwest  Level FlightAware Approximate
04:18PM 43.4327 -83.9660 324° Northwest  Level FlightAware Approximate
04:19PM 43.4661 -83.9994 324° Northwest  Level FlightAware Approximate
04:20PM 43.4995 -84.0329 324° Northwest  Level FlightAware Approximate
04:21PM 43.5167 -84.0667 305° West  Level FlightAware Approximate
04:22PM 43.5329 -84.0796 305° West  Level Estimated
04:23PM 43.5329 -84.0796 305° West  Level Estimated
04:24PM 43.5329 -84.0796 305° West  Level Estimated
04:25PM 43.5329 -84.0796 305° West  Level Estimated
04:26PM 43.5329 -84.0796 305° West  Level Estimated